sensor_id;sensor_type;location;lat;lon;timestamp;P1;durP1;ratioP1;P2;durP2;ratioP2
4794;SDS011;2411;47.060;15.064;2023-01-26T00:01:33;15.27;;;10.53;;
4794;SDS011;2411;47.060;15.064;2023-01-26T00:04:00;19.03;;;11.43;;
4794;SDS011;2411;47.060;15.064;2023-01-26T00:06:28;16.40;;;10.60;;
4794;SDS011;2411;47.060;15.064;2023-01-26T00:08:55;17.80;;;9.83;;
4794;SDS011;2411;47.060;15.064;2023-01-26T00:11:24;19.33;;;10.17;;
4794;SDS011;2411;47.060;15.064;2023-01-26T00:13:52;23.50;;;9.97;;
4794;SDS011;2411;47.060;15.064;2023-01-26T00:16:21;28.77;;;10.17;;
4794;SDS011;2411;47.060;15.064;2023-01-26T00:18:49;20.43;;;10.30;;
4794;SDS011;2411;47.060;15.064;2023-01-26T00:21:17;16.20;;;10.77;;
4794;SDS011;2411;47.060;15.064;2023-01-26T00:23:48;16.93;;;10.80;;
4794;SDS011;2411;47.060;15.064;2023-01-26T00:26:18;18.30;;;10.53;;
4794;SDS011;2411;47.060;15.064;2023-01-26T00:28:47;13.23;;;9.70;;
4794;SDS011;2411;47.060;15.064;2023-01-26T00:31:16;18.33;;;10.37;;
4794;SDS011;2411;47.060;15.064;2023-01-26T00:33:45;17.70;;;10.53;;
4794;SDS011;2411;47.060;15.064;2023-01-26T00:36:12;18.53;;;10.00;;
4794;SDS011;2411;47.060;15.064;2023-01-26T00:38:40;13.83;;;9.37;;
4794;SDS011;2411;47.060;15.064;2023-01-26T00:41:08;16.50;;;10.63;;
4794;SDS011;2411;47.060;15.064;2023-01-26T00:43:56;15.93;;;10.60;;
4794;SDS011;2411;47.060;15.064;2023-01-26T00:46:23;17.43;;;9.77;;
4794;SDS011;2411;47.060;15.064;2023-01-26T00:48:50;13.83;;;9.97;;
4794;SDS011;2411;47.060;15.064;2023-01-26T00:51:17;17.13;;;10.03;;
4794;SDS011;2411;47.060;15.064;2023-01-26T00:53:45;16.47;;;9.67;;
4794;SDS011;2411;47.060;15.064;2023-01-26T00:56:12;18.30;;;11.70;;
4794;SDS011;2411;47.060;15.064;2023-01-26T00:58:40;15.70;;;10.73;;
4794;SDS011;2411;47.060;15.064;2023-01-26T01:01:08;18.23;;;10.27;;
4794;SDS011;2411;47.060;15.064;2023-01-26T01:03:35;15.90;;;10.33;;
4794;SDS011;2411;47.060;15.064;2023-01-26T01:06:03;12.73;;;9.53;;
4794;SDS011;2411;47.060;15.064;2023-01-26T01:08:30;17.90;;;11.30;;
4794;SDS011;2411;47.060;15.064;2023-01-26T01:11:04;19.23;;;9.87;;
4794;SDS011;2411;47.060;15.064;2023-01-26T01:13:33;17.10;;;11.83;;
4794;SDS011;2411;47.060;15.064;2023-01-26T01:16:04;18.97;;;10.97;;
4794;SDS011;2411;47.060;15.064;2023-01-26T01:18:36;15.50;;;11.70;;
4794;SDS011;2411;47.060;15.064;2023-01-26T01:21:11;14.63;;;10.20;;
4794;SDS011;2411;47.060;15.064;2023-01-26T01:23:40;15.80;;;9.90;;
4794;SDS011;2411;47.060;15.064;2023-01-26T01:26:08;15.90;;;9.77;;
4794;SDS011;2411;47.060;15.064;2023-01-26T01:28:36;12.97;;;9.87;;
4794;SDS011;2411;47.060;15.064;2023-01-26T01:31:04;15.20;;;10.30;;
4794;SDS011;2411;47.060;15.064;2023-01-26T01:33:32;12.83;;;9.83;;
4794;SDS011;2411;47.060;15.064;2023-01-26T01:36:04;14.90;;;9.70;;
4794;SDS011;2411;47.060;15.064;2023-01-26T01:38:33;14.43;;;10.20;;
4794;SDS011;2411;47.060;15.064;2023-01-26T01:41:01;14.47;;;10.20;;
4794;SDS011;2411;47.060;15.064;2023-01-26T01:43:28;14.03;;;9.00;;
4794;SDS011;2411;47.060;15.064;2023-01-26T01:45:55;19.10;;;10.00;;
4794;SDS011;2411;47.060;15.064;2023-01-26T01:48:30;14.67;;;8.50;;
4794;SDS011;2411;47.060;15.064;2023-01-26T01:51:04;13.47;;;10.13;;
4794;SDS011;2411;47.060;15.064;2023-01-26T01:53:38;14.43;;;9.53;;
4794;SDS011;2411;47.060;15.064;2023-01-26T01:56:15;14.73;;;9.57;;
4794;SDS011;2411;47.060;15.064;2023-01-26T01:58:47;13.80;;;9.63;;
4794;SDS011;2411;47.060;15.064;2023-01-26T02:01:18;16.30;;;10.13;;
4794;SDS011;2411;47.060;15.064;2023-01-26T02:03:46;17.33;;;10.17;;
4794;SDS011;2411;47.060;15.064;2023-01-26T02:09:14;24.10;;;11.97;;
4794;SDS011;2411;47.060;15.064;2023-01-26T02:12:16;15.73;;;10.10;;
4794;SDS011;2411;47.060;15.064;2023-01-26T02:14:47;13.53;;;9.87;;
4794;SDS011;2411;47.060;15.064;2023-01-26T02:17:17;15.37;;;10.47;;
4794;SDS011;2411;47.060;15.064;2023-01-26T02:19:50;19.70;;;11.20;;
4794;SDS011;2411;47.060;15.064;2023-01-26T02:22:28;18.40;;;9.07;;
4794;SDS011;2411;47.060;15.064;2023-01-26T02:25:07;12.00;;;9.03;;
4794;SDS011;2411;47.060;15.064;2023-01-26T02:27:45;13.60;;;9.40;;
4794;SDS011;2411;47.060;15.064;2023-01-26T02:30:12;13.60;;;9.17;;
4794;SDS011;2411;47.060;15.064;2023-01-26T02:32:41;11.00;;;8.80;;
4794;SDS011;2411;47.060;15.064;2023-01-26T02:35:08;12.50;;;9.40;;
4794;SDS011;2411;47.060;15.064;2023-01-26T02:37:36;10.83;;;8.23;;
4794;SDS011;2411;47.060;15.064;2023-01-26T02:40:48;14.93;;;8.60;;
4794;SDS011;2411;47.060;15.064;2023-01-26T02:43:01;13.17;;;8.87;;
4794;SDS011;2411;47.060;15.064;2023-01-26T02:45:29;12.90;;;9.80;;
4794;SDS011;2411;47.060;15.064;2023-01-26T02:47:58;14.10;;;10.40;;
4794;SDS011;2411;47.060;15.064;2023-01-26T02:50:30;14.57;;;9.90;;
4794;SDS011;2411;47.060;15.064;2023-01-26T02:52:58;13.87;;;8.77;;
4794;SDS011;2411;47.060;15.064;2023-01-26T02:55:25;11.17;;;7.80;;
4794;SDS011;2411;47.060;15.064;2023-01-26T02:57:55;12.07;;;8.80;;
4794;SDS011;2411;47.060;15.064;2023-01-26T03:00:28;11.90;;;8.17;;
4794;SDS011;2411;47.060;15.064;2023-01-26T03:03:06;10.57;;;7.90;;
4794;SDS011;2411;47.060;15.064;2023-01-26T03:06:08;9.07;;;6.50;;
4794;SDS011;2411;47.060;15.064;2023-01-26T03:08:36;8.73;;;7.00;;
4794;SDS011;2411;47.060;15.064;2023-01-26T03:11:04;16.93;;;9.03;;
4794;SDS011;2411;47.060;15.064;2023-01-26T03:13:33;12.13;;;7.70;;
4794;SDS011;2411;47.060;15.064;2023-01-26T03:16:00;10.00;;;8.10;;
4794;SDS011;2411;47.060;15.064;2023-01-26T03:18:33;9.33;;;7.13;;
4794;SDS011;2411;47.060;15.064;2023-01-26T03:21:20;9.57;;;6.70;;
4794;SDS011;2411;47.060;15.064;2023-01-26T03:24:10;9.57;;;7.03;;
4794;SDS011;2411;47.060;15.064;2023-01-26T03:26:57;10.03;;;7.20;;
4794;SDS011;2411;47.060;15.064;2023-01-26T03:29:44;9.50;;;6.83;;
4794;SDS011;2411;47.060;15.064;2023-01-26T03:32:12;8.80;;;7.03;;
4794;SDS011;2411;47.060;15.064;2023-01-26T03:34:39;17.43;;;7.23;;
4794;SDS011;2411;47.060;15.064;2023-01-26T03:37:07;9.27;;;7.60;;
4794;SDS011;2411;47.060;15.064;2023-01-26T03:39:34;10.50;;;7.10;;
4794;SDS011;2411;47.060;15.064;2023-01-26T03:42:20;10.43;;;7.30;;
4794;SDS011;2411;47.060;15.064;2023-01-26T03:45:06;11.10;;;7.90;;
4794;SDS011;2411;47.060;15.064;2023-01-26T03:47:52;11.17;;;7.20;;
4794;SDS011;2411;47.060;15.064;2023-01-26T03:50:38;9.50;;;6.77;;
4794;SDS011;2411;47.060;15.064;2023-01-26T03:53:23;9.20;;;7.60;;
4794;SDS011;2411;47.060;15.064;2023-01-26T03:56:09;11.63;;;7.97;;
4794;SDS011;2411;47.060;15.064;2023-01-26T03:58:51;10.77;;;7.20;;
4794;SDS011;2411;47.060;15.064;2023-01-26T04:01:21;11.83;;;8.20;;
4794;SDS011;2411;47.060;15.064;2023-01-26T04:03:54;10.27;;;7.17;;
4794;SDS011;2411;47.060;15.064;2023-01-26T04:06:42;7.40;;;6.50;;
4794;SDS011;2411;47.060;15.064;2023-01-26T04:09:29;8.50;;;7.00;;
4794;SDS011;2411;47.060;15.064;2023-01-26T04:11:57;8.37;;;6.63;;
4794;SDS011;2411;47.060;15.064;2023-01-26T04:14:24;11.50;;;7.37;;
4794;SDS011;2411;47.060;15.064;2023-01-26T04:17:15;9.27;;;6.40;;
4794;SDS011;2411;47.060;15.064;2023-01-26T04:20:02;9.07;;;6.87;;
4794;SDS011;2411;47.060;15.064;2023-01-26T04:22:49;9.03;;;7.20;;
4794;SDS011;2411;47.060;15.064;2023-01-26T04:25:17;10.47;;;7.10;;
4794;SDS011;2411;47.060;15.064;2023-01-26T04:27:46;12.43;;;7.57;;
4794;SDS011;2411;47.060;15.064;2023-01-26T04:30:14;9.20;;;6.33;;
4794;SDS011;2411;47.060;15.064;2023-01-26T04:32:42;9.70;;;7.70;;
4794;SDS011;2411;47.060;15.064;2023-01-26T04:35:11;9.90;;;7.07;;
4794;SDS011;2411;47.060;15.064;2023-01-26T04:37:39;9.90;;;7.17;;
4794;SDS011;2411;47.060;15.064;2023-01-26T04:40:07;11.37;;;7.80;;
4794;SDS011;2411;47.060;15.064;2023-01-26T04:42:35;9.00;;;7.20;;
4794;SDS011;2411;47.060;15.064;2023-01-26T04:45:02;10.37;;;8.47;;
4794;SDS011;2411;47.060;15.064;2023-01-26T04:47:30;8.50;;;7.57;;
4794;SDS011;2411;47.060;15.064;2023-01-26T04:49:57;10.67;;;8.40;;
4794;SDS011;2411;47.060;15.064;2023-01-26T04:52:24;9.13;;;6.50;;
4794;SDS011;2411;47.060;15.064;2023-01-26T04:54:52;9.77;;;8.13;;
4794;SDS011;2411;47.060;15.064;2023-01-26T04:57:19;13.97;;;8.70;;
4794;SDS011;2411;47.060;15.064;2023-01-26T04:59:48;8.77;;;7.17;;
4794;SDS011;2411;47.060;15.064;2023-01-26T05:02:15;10.77;;;7.93;;
4794;SDS011;2411;47.060;15.064;2023-01-26T05:04:43;9.00;;;7.40;;
4794;SDS011;2411;47.060;15.064;2023-01-26T05:07:10;9.50;;;7.50;;
4794;SDS011;2411;47.060;15.064;2023-01-26T05:09:37;12.10;;;7.20;;
4794;SDS011;2411;47.060;15.064;2023-01-26T05:12:05;10.90;;;8.07;;
4794;SDS011;2411;47.060;15.064;2023-01-26T05:14:50;8.63;;;6.83;;
4794;SDS011;2411;47.060;15.064;2023-01-26T05:17:18;9.47;;;7.40;;
4794;SDS011;2411;47.060;15.064;2023-01-26T05:19:45;12.87;;;7.57;;
4794;SDS011;2411;47.060;15.064;2023-01-26T05:22:12;10.03;;;7.07;;
4794;SDS011;2411;47.060;15.064;2023-01-26T05:24:39;9.43;;;6.33;;
4794;SDS011;2411;47.060;15.064;2023-01-26T05:27:07;8.67;;;7.10;;
4794;SDS011;2411;47.060;15.064;2023-01-26T05:29:49;9.33;;;7.50;;
4794;SDS011;2411;47.060;15.064;2023-01-26T05:32:16;8.13;;;6.60;;
4794;SDS011;2411;47.060;15.064;2023-01-26T05:34:44;8.67;;;6.20;;
4794;SDS011;2411;47.060;15.064;2023-01-26T05:37:12;10.53;;;8.17;;
4794;SDS011;2411;47.060;15.064;2023-01-26T05:39:40;10.83;;;8.53;;
4794;SDS011;2411;47.060;15.064;2023-01-26T05:42:09;15.50;;;8.47;;
4794;SDS011;2411;47.060;15.064;2023-01-26T05:44:37;11.00;;;7.70;;
4794;SDS011;2411;47.060;15.064;2023-01-26T05:47:05;8.20;;;7.20;;
4794;SDS011;2411;47.060;15.064;2023-01-26T05:49:32;9.20;;;7.47;;
4794;SDS011;2411;47.060;15.064;2023-01-26T05:51:59;9.70;;;7.10;;
4794;SDS011;2411;47.060;15.064;2023-01-26T05:54:27;9.23;;;7.67;;
4794;SDS011;2411;47.060;15.064;2023-01-26T05:56:54;10.53;;;8.20;;
4794;SDS011;2411;47.060;15.064;2023-01-26T05:59:23;9.10;;;7.30;;
4794;SDS011;2411;47.060;15.064;2023-01-26T06:01:50;11.43;;;8.10;;
4794;SDS011;2411;47.060;15.064;2023-01-26T06:04:17;10.17;;;7.57;;
4794;SDS011;2411;47.060;15.064;2023-01-26T06:06:45;12.77;;;8.20;;
4794;SDS011;2411;47.060;15.064;2023-01-26T06:09:12;10.63;;;7.90;;
4794;SDS011;2411;47.060;15.064;2023-01-26T06:11:39;13.37;;;9.27;;
4794;SDS011;2411;47.060;15.064;2023-01-26T06:14:07;13.43;;;9.10;;
4794;SDS011;2411;47.060;15.064;2023-01-26T06:16:34;14.67;;;8.53;;
4794;SDS011;2411;47.060;15.064;2023-01-26T06:19:01;11.67;;;8.43;;
4794;SDS011;2411;47.060;15.064;2023-01-26T06:21:31;13.50;;;9.23;;
4794;SDS011;2411;47.060;15.064;2023-01-26T06:23:59;12.90;;;9.00;;
4794;SDS011;2411;47.060;15.064;2023-01-26T06:26:26;14.10;;;10.20;;
4794;SDS011;2411;47.060;15.064;2023-01-26T06:28:53;12.33;;;9.40;;
4794;SDS011;2411;47.060;15.064;2023-01-26T06:31:21;18.23;;;11.70;;
4794;SDS011;2411;47.060;15.064;2023-01-26T06:33:55;14.13;;;9.97;;
4794;SDS011;2411;47.060;15.064;2023-01-26T06:36:22;18.90;;;11.73;;
4794;SDS011;2411;47.060;15.064;2023-01-26T06:38:50;17.80;;;11.20;;
4794;SDS011;2411;47.060;15.064;2023-01-26T06:41:22;15.80;;;11.00;;
4794;SDS011;2411;47.060;15.064;2023-01-26T06:43:50;20.60;;;11.40;;
4794;SDS011;2411;47.060;15.064;2023-01-26T06:46:17;19.40;;;12.47;;
4794;SDS011;2411;47.060;15.064;2023-01-26T06:48:45;27.60;;;12.70;;
4794;SDS011;2411;47.060;15.064;2023-01-26T06:53:55;20.27;;;13.40;;
4794;SDS011;2411;47.060;15.064;2023-01-26T06:56:24;17.97;;;13.00;;
4794;SDS011;2411;47.060;15.064;2023-01-26T06:58:53;22.37;;;12.60;;
4794;SDS011;2411;47.060;15.064;2023-01-26T07:01:24;21.00;;;13.90;;
4794;SDS011;2411;47.060;15.064;2023-01-26T07:03:53;21.97;;;14.20;;
4794;SDS011;2411;47.060;15.064;2023-01-26T07:06:20;21.30;;;13.43;;
4794;SDS011;2411;47.060;15.064;2023-01-26T07:08:48;16.77;;;11.63;;
4794;SDS011;2411;47.060;15.064;2023-01-26T07:11:15;17.27;;;12.10;;
4794;SDS011;2411;47.060;15.064;2023-01-26T07:13:42;19.03;;;12.07;;
4794;SDS011;2411;47.060;15.064;2023-01-26T07:16:10;18.30;;;11.00;;
4794;SDS011;2411;47.060;15.064;2023-01-26T07:18:39;17.27;;;11.93;;
4794;SDS011;2411;47.060;15.064;2023-01-26T07:21:08;20.47;;;11.97;;
4794;SDS011;2411;47.060;15.064;2023-01-26T07:23:37;19.13;;;11.70;;
4794;SDS011;2411;47.060;15.064;2023-01-26T07:26:05;18.83;;;11.60;;
4794;SDS011;2411;47.060;15.064;2023-01-26T07:28:32;16.63;;;11.57;;
4794;SDS011;2411;47.060;15.064;2023-01-26T07:31:00;23.53;;;12.67;;
4794;SDS011;2411;47.060;15.064;2023-01-26T07:33:28;17.10;;;10.80;;
4794;SDS011;2411;47.060;15.064;2023-01-26T07:35:56;15.73;;;11.00;;
4794;SDS011;2411;47.060;15.064;2023-01-26T07:38:24;18.80;;;11.70;;
4794;SDS011;2411;47.060;15.064;2023-01-26T07:40:52;17.03;;;10.43;;
4794;SDS011;2411;47.060;15.064;2023-01-26T07:43:19;15.17;;;10.43;;
4794;SDS011;2411;47.060;15.064;2023-01-26T07:45:51;21.30;;;12.17;;
4794;SDS011;2411;47.060;15.064;2023-01-26T07:48:20;18.70;;;11.17;;
4794;SDS011;2411;47.060;15.064;2023-01-26T07:50:49;22.80;;;14.40;;
4794;SDS011;2411;47.060;15.064;2023-01-26T07:53:17;17.50;;;10.60;;
4794;SDS011;2411;47.060;15.064;2023-01-26T07:55:48;18.90;;;11.30;;
4794;SDS011;2411;47.060;15.064;2023-01-26T07:58:15;17.33;;;11.40;;
4794;SDS011;2411;47.060;15.064;2023-01-26T08:00:45;18.67;;;12.33;;
4794;SDS011;2411;47.060;15.064;2023-01-26T08:03:13;16.37;;;10.90;;
4794;SDS011;2411;47.060;15.064;2023-01-26T08:05:40;13.90;;;10.60;;
4794;SDS011;2411;47.060;15.064;2023-01-26T08:08:08;20.90;;;12.43;;
4794;SDS011;2411;47.060;15.064;2023-01-26T08:10:36;16.83;;;10.33;;
4794;SDS011;2411;47.060;15.064;2023-01-26T08:13:03;17.50;;;13.47;;
4794;SDS011;2411;47.060;15.064;2023-01-26T08:15:30;18.57;;;12.70;;
4794;SDS011;2411;47.060;15.064;2023-01-26T08:17:58;22.17;;;12.60;;
4794;SDS011;2411;47.060;15.064;2023-01-26T08:20:29;18.03;;;11.63;;
4794;SDS011;2411;47.060;15.064;2023-01-26T08:22:56;16.40;;;11.43;;
4794;SDS011;2411;47.060;15.064;2023-01-26T08:25:25;14.40;;;10.10;;
4794;SDS011;2411;47.060;15.064;2023-01-26T08:27:53;13.97;;;10.20;;
4794;SDS011;2411;47.060;15.064;2023-01-26T08:30:21;16.00;;;10.80;;
4794;SDS011;2411;47.060;15.064;2023-01-26T08:32:48;17.40;;;12.17;;
4794;SDS011;2411;47.060;15.064;2023-01-26T08:35:15;15.70;;;11.37;;
4794;SDS011;2411;47.060;15.064;2023-01-26T08:37:43;18.30;;;11.60;;
4794;SDS011;2411;47.060;15.064;2023-01-26T08:40:10;16.27;;;11.67;;
4794;SDS011;2411;47.060;15.064;2023-01-26T08:42:38;18.23;;;11.00;;
4794;SDS011;2411;47.060;15.064;2023-01-26T08:45:06;27.70;;;11.17;;
4794;SDS011;2411;47.060;15.064;2023-01-26T08:47:33;19.03;;;11.37;;
4794;SDS011;2411;47.060;15.064;2023-01-26T08:50:01;17.17;;;11.03;;
4794;SDS011;2411;47.060;15.064;2023-01-26T08:52:28;14.47;;;11.13;;
4794;SDS011;2411;47.060;15.064;2023-01-26T08:54:55;16.37;;;10.23;;
4794;SDS011;2411;47.060;15.064;2023-01-26T08:57:23;14.33;;;9.97;;
4794;SDS011;2411;47.060;15.064;2023-01-26T08:59:50;14.03;;;10.83;;
4794;SDS011;2411;47.060;15.064;2023-01-26T09:02:17;14.93;;;11.23;;
4794;SDS011;2411;47.060;15.064;2023-01-26T09:04:44;15.67;;;11.27;;
4794;SDS011;2411;47.060;15.064;2023-01-26T09:07:12;16.70;;;11.10;;
4794;SDS011;2411;47.060;15.064;2023-01-26T09:09:39;12.90;;;10.63;;
4794;SDS011;2411;47.060;15.064;2023-01-26T09:12:06;17.00;;;11.33;;
4794;SDS011;2411;47.060;15.064;2023-01-26T09:14:33;13.47;;;10.43;;
4794;SDS011;2411;47.060;15.064;2023-01-26T09:17:01;15.97;;;10.87;;
4794;SDS011;2411;47.060;15.064;2023-01-26T09:19:28;12.20;;;9.87;;
4794;SDS011;2411;47.060;15.064;2023-01-26T09:21:56;15.60;;;10.77;;
4794;SDS011;2411;47.060;15.064;2023-01-26T09:24:24;15.57;;;11.10;;
4794;SDS011;2411;47.060;15.064;2023-01-26T09:26:51;13.30;;;10.80;;
4794;SDS011;2411;47.060;15.064;2023-01-26T09:29:18;13.17;;;10.17;;
4794;SDS011;2411;47.060;15.064;2023-01-26T09:31:45;16.57;;;11.00;;
4794;SDS011;2411;47.060;15.064;2023-01-26T09:34:13;18.70;;;10.60;;
4794;SDS011;2411;47.060;15.064;2023-01-26T09:36:40;13.23;;;10.07;;
4794;SDS011;2411;47.060;15.064;2023-01-26T09:39:07;14.53;;;10.83;;
4794;SDS011;2411;47.060;15.064;2023-01-26T09:44:32;14.90;;;10.37;;
4794;SDS011;2411;47.060;15.064;2023-01-26T09:47:13;18.40;;;11.30;;
4794;SDS011;2411;47.060;15.064;2023-01-26T09:50:01;14.07;;;10.60;;
4794;SDS011;2411;47.060;15.064;2023-01-26T09:52:35;15.13;;;10.57;;
4794;SDS011;2411;47.060;15.064;2023-01-26T09:55:14;13.10;;;10.00;;
4794;SDS011;2411;47.060;15.064;2023-01-26T09:58:04;14.47;;;10.83;;
4794;SDS011;2411;47.060;15.064;2023-01-26T10:00:35;12.23;;;9.97;;
4794;SDS011;2411;47.060;15.064;2023-01-26T10:03:22;10.97;;;8.77;;
4794;SDS011;2411;47.060;15.064;2023-01-26T10:08:54;13.57;;;9.47;;
4794;SDS011;2411;47.060;15.064;2023-01-26T10:11:36;13.23;;;10.00;;
4794;SDS011;2411;47.060;15.064;2023-01-26T10:16:42;13.37;;;10.40;;
4794;SDS011;2411;47.060;15.064;2023-01-26T10:19:14;13.20;;;10.10;;
4794;SDS011;2411;47.060;15.064;2023-01-26T10:21:54;13.50;;;10.23;;
4794;SDS011;2411;47.060;15.064;2023-01-26T10:24:26;12.97;;;9.53;;
4794;SDS011;2411;47.060;15.064;2023-01-26T10:26:55;14.67;;;11.20;;
4794;SDS011;2411;47.060;15.064;2023-01-26T10:29:23;14.67;;;10.90;;
4794;SDS011;2411;47.060;15.064;2023-01-26T10:31:51;15.57;;;10.97;;
4794;SDS011;2411;47.060;15.064;2023-01-26T10:34:22;15.80;;;10.27;;
4794;SDS011;2411;47.060;15.064;2023-01-26T10:36:52;17.13;;;9.27;;
4794;SDS011;2411;47.060;15.064;2023-01-26T10:39:27;12.00;;;8.40;;
4794;SDS011;2411;47.060;15.064;2023-01-26T10:41:58;12.57;;;9.93;;
4794;SDS011;2411;47.060;15.064;2023-01-26T10:49:40;16.40;;;11.00;;
4794;SDS011;2411;47.060;15.064;2023-01-26T10:54:49;15.23;;;10.83;;
4794;SDS011;2411;47.060;15.064;2023-01-26T10:57:40;16.60;;;10.67;;
4794;SDS011;2411;47.060;15.064;2023-01-26T11:02:50;17.53;;;13.13;;
4794;SDS011;2411;47.060;15.064;2023-01-26T11:05:23;15.20;;;11.33;;
4794;SDS011;2411;47.060;15.064;2023-01-26T11:07:51;15.20;;;10.17;;
4794;SDS011;2411;47.060;15.064;2023-01-26T11:10:32;12.13;;;9.70;;
4794;SDS011;2411;47.060;15.064;2023-01-26T11:15:46;13.57;;;10.03;;
4794;SDS011;2411;47.060;15.064;2023-01-26T11:26:23;12.87;;;10.30;;
4794;SDS011;2411;47.060;15.064;2023-01-26T11:28:59;16.17;;;11.10;;
4794;SDS011;2411;47.060;15.064;2023-01-26T11:37:25;13.33;;;9.90;;
4794;SDS011;2411;47.060;15.064;2023-01-26T11:51:47;15.63;;;11.30;;
4794;SDS011;2411;47.060;15.064;2023-01-26T11:59:57;15.13;;;10.53;;
4794;SDS011;2411;47.060;15.064;2023-01-26T12:02:30;13.23;;;10.10;;
4794;SDS011;2411;47.060;15.064;2023-01-26T12:05:02;16.43;;;11.37;;
4794;SDS011;2411;47.060;15.064;2023-01-26T12:07:54;16.30;;;11.47;;
4794;SDS011;2411;47.060;15.064;2023-01-26T12:10:32;15.30;;;9.47;;
4794;SDS011;2411;47.060;15.064;2023-01-26T12:13:12;13.83;;;10.60;;
4794;SDS011;2411;47.060;15.064;2023-01-26T12:15:52;14.63;;;10.03;;
4794;SDS011;2411;47.060;15.064;2023-01-26T12:18:34;12.27;;;9.40;;
4794;SDS011;2411;47.060;15.064;2023-01-26T12:21:24;13.70;;;10.23;;
4794;SDS011;2411;47.060;15.064;2023-01-26T12:23:57;14.43;;;9.70;;
4794;SDS011;2411;47.060;15.064;2023-01-26T12:26:30;15.37;;;10.37;;
4794;SDS011;2411;47.060;15.064;2023-01-26T12:29:01;13.83;;;10.37;;
4794;SDS011;2411;47.060;15.064;2023-01-26T12:31:57;12.87;;;10.20;;
4794;SDS011;2411;47.060;15.064;2023-01-26T12:34:31;18.87;;;10.73;;
4794;SDS011;2411;47.060;15.064;2023-01-26T12:39:45;15.43;;;10.10;;
4794;SDS011;2411;47.060;15.064;2023-01-26T12:42:19;13.13;;;9.77;;
4794;SDS011;2411;47.060;15.064;2023-01-26T12:45:14;16.97;;;11.10;;
4794;SDS011;2411;47.060;15.064;2023-01-26T12:53:10;15.40;;;10.33;;
4794;SDS011;2411;47.060;15.064;2023-01-26T12:55:46;14.10;;;9.30;;
4794;SDS011;2411;47.060;15.064;2023-01-26T13:00:52;19.43;;;11.33;;
4794;SDS011;2411;47.060;15.064;2023-01-26T13:03:28;12.73;;;9.53;;
4794;SDS011;2411;47.060;15.064;2023-01-26T13:06:02;14.13;;;9.57;;
4794;SDS011;2411;47.060;15.064;2023-01-26T13:09:16;15.07;;;9.77;;
4794;SDS011;2411;47.060;15.064;2023-01-26T13:11:51;11.70;;;8.30;;
4794;SDS011;2411;47.060;15.064;2023-01-26T13:33:10;11.80;;;7.70;;
4794;SDS011;2411;47.060;15.064;2023-01-26T13:35:51;9.27;;;7.90;;
4794;SDS011;2411;47.060;15.064;2023-01-26T13:38:23;10.03;;;7.90;;
4794;SDS011;2411;47.060;15.064;2023-01-26T13:41:06;8.67;;;7.30;;
4794;SDS011;2411;47.060;15.064;2023-01-26T13:48:51;8.87;;;7.30;;
4794;SDS011;2411;47.060;15.064;2023-01-26T13:51:26;10.67;;;7.27;;
4794;SDS011;2411;47.060;15.064;2023-01-26T13:56:38;10.50;;;8.20;;
4794;SDS011;2411;47.060;15.064;2023-01-26T14:01:48;9.53;;;7.73;;
4794;SDS011;2411;47.060;15.064;2023-01-26T14:04:21;8.53;;;7.43;;
4794;SDS011;2411;47.060;15.064;2023-01-26T14:07:06;8.93;;;7.97;;
4794;SDS011;2411;47.060;15.064;2023-01-26T14:09:45;14.43;;;8.27;;
4794;SDS011;2411;47.060;15.064;2023-01-26T14:12:16;15.90;;;10.17;;
4794;SDS011;2411;47.060;15.064;2023-01-26T14:14:52;12.80;;;9.70;;
4794;SDS011;2411;47.060;15.064;2023-01-26T14:17:31;13.47;;;8.97;;
4794;SDS011;2411;47.060;15.064;2023-01-26T14:20:15;8.40;;;7.40;;
4794;SDS011;2411;47.060;15.064;2023-01-26T14:25:36;9.47;;;7.20;;
4794;SDS011;2411;47.060;15.064;2023-01-26T14:28:04;10.37;;;7.90;;
4794;SDS011;2411;47.060;15.064;2023-01-26T14:30:35;7.90;;;7.00;;
4794;SDS011;2411;47.060;15.064;2023-01-26T14:33:13;9.03;;;6.43;;
4794;SDS011;2411;47.060;15.064;2023-01-26T14:35:42;7.80;;;6.50;;
4794;SDS011;2411;47.060;15.064;2023-01-26T14:38:21;7.87;;;6.17;;
4794;SDS011;2411;47.060;15.064;2023-01-26T14:40:50;10.80;;;7.37;;
4794;SDS011;2411;47.060;15.064;2023-01-26T14:43:20;13.67;;;7.40;;
4794;SDS011;2411;47.060;15.064;2023-01-26T14:45:53;8.17;;;7.30;;
4794;SDS011;2411;47.060;15.064;2023-01-26T14:48:43;10.67;;;7.40;;
4794;SDS011;2411;47.060;15.064;2023-01-26T14:51:23;8.37;;;7.00;;
4794;SDS011;2411;47.060;15.064;2023-01-26T14:53:57;8.77;;;7.13;;
4794;SDS011;2411;47.060;15.064;2023-01-26T14:56:57;9.03;;;6.70;;
4794;SDS011;2411;47.060;15.064;2023-01-26T14:59:35;8.33;;;6.40;;
4794;SDS011;2411;47.060;15.064;2023-01-26T15:04:51;10.87;;;7.33;;
4794;SDS011;2411;47.060;15.064;2023-01-26T15:10:03;7.83;;;6.87;;
4794;SDS011;2411;47.060;15.064;2023-01-26T15:12:54;15.23;;;8.63;;
4794;SDS011;2411;47.060;15.064;2023-01-26T15:15:27;12.77;;;8.40;;
4794;SDS011;2411;47.060;15.064;2023-01-26T15:17:59;13.00;;;8.60;;
4794;SDS011;2411;47.060;15.064;2023-01-26T15:22:55;9.03;;;7.90;;
4794;SDS011;2411;47.060;15.064;2023-01-26T15:25:24;11.43;;;7.60;;
4794;SDS011;2411;47.060;15.064;2023-01-26T15:27:57;10.40;;;7.50;;
4794;SDS011;2411;47.060;15.064;2023-01-26T15:30:26;10.97;;;7.33;;
4794;SDS011;2411;47.060;15.064;2023-01-26T15:32:59;9.40;;;7.10;;
4794;SDS011;2411;47.060;15.064;2023-01-26T15:35:27;10.87;;;7.20;;
4794;SDS011;2411;47.060;15.064;2023-01-26T15:37:58;15.43;;;7.87;;
4794;SDS011;2411;47.060;15.064;2023-01-26T15:40:26;9.10;;;7.50;;
4794;SDS011;2411;47.060;15.064;2023-01-26T15:43:10;8.57;;;7.67;;
4794;SDS011;2411;47.060;15.064;2023-01-26T15:45:38;10.10;;;7.27;;
4794;SDS011;2411;47.060;15.064;2023-01-26T15:48:08;8.60;;;7.10;;
4794;SDS011;2411;47.060;15.064;2023-01-26T15:50:36;10.97;;;8.03;;
4794;SDS011;2411;47.060;15.064;2023-01-26T15:53:03;12.50;;;7.20;;
4794;SDS011;2411;47.060;15.064;2023-01-26T15:55:31;9.20;;;7.10;;
4794;SDS011;2411;47.060;15.064;2023-01-26T15:57:59;9.37;;;7.33;;
4794;SDS011;2411;47.060;15.064;2023-01-26T16:00:26;9.67;;;7.20;;
4794;SDS011;2411;47.060;15.064;2023-01-26T16:02:53;10.83;;;7.27;;
4794;SDS011;2411;47.060;15.064;2023-01-26T16:05:21;8.23;;;7.43;;
4794;SDS011;2411;47.060;15.064;2023-01-26T16:07:50;10.87;;;7.60;;
4794;SDS011;2411;47.060;15.064;2023-01-26T16:10:18;11.33;;;7.67;;
4794;SDS011;2411;47.060;15.064;2023-01-26T16:12:46;11.00;;;8.27;;
4794;SDS011;2411;47.060;15.064;2023-01-26T16:17:53;9.63;;;7.20;;
4794;SDS011;2411;47.060;15.064;2023-01-26T16:20:20;11.47;;;7.67;;
4794;SDS011;2411;47.060;15.064;2023-01-26T16:22:47;11.30;;;8.00;;
4794;SDS011;2411;47.060;15.064;2023-01-26T16:25:19;9.80;;;7.83;;
4794;SDS011;2411;47.060;15.064;2023-01-26T16:27:50;12.00;;;8.63;;
4794;SDS011;2411;47.060;15.064;2023-01-26T16:30:18;11.47;;;8.47;;
4794;SDS011;2411;47.060;15.064;2023-01-26T16:32:46;12.97;;;8.63;;
4794;SDS011;2411;47.060;15.064;2023-01-26T16:35:15;12.63;;;9.33;;
4794;SDS011;2411;47.060;15.064;2023-01-26T16:37:44;13.47;;;8.50;;
4794;SDS011;2411;47.060;15.064;2023-01-26T16:40:12;12.50;;;8.07;;
4794;SDS011;2411;47.060;15.064;2023-01-26T16:42:42;10.47;;;7.97;;
4794;SDS011;2411;47.060;15.064;2023-01-26T16:47:43;12.57;;;9.00;;
4794;SDS011;2411;47.060;15.064;2023-01-26T16:50:13;11.23;;;8.33;;
4794;SDS011;2411;47.060;15.064;2023-01-26T16:52:41;10.57;;;7.63;;
4794;SDS011;2411;47.060;15.064;2023-01-26T16:55:10;11.17;;;8.10;;
4794;SDS011;2411;47.060;15.064;2023-01-26T16:57:39;9.90;;;7.60;;
4794;SDS011;2411;47.060;15.064;2023-01-26T17:00:17;12.07;;;8.27;;
4794;SDS011;2411;47.060;15.064;2023-01-26T17:02:47;11.60;;;8.27;;
4794;SDS011;2411;47.060;15.064;2023-01-26T17:05:18;10.83;;;8.90;;
4794;SDS011;2411;47.060;15.064;2023-01-26T17:07:47;13.60;;;9.30;;